This is the latest recevied weather packets stored in our database for station/object DC1RS. If no packets are shown the sender has not sent any weather packets the latest 10 day(s).
| Time | Temp. | Humidity | Pressure | Rain* | Wind** | Luminosity | Snow |
|---|---|---|---|---|---|---|---|
| 1777997931 | 25° C | 37% | 1002.7 hPa | 0 mm | - | 55 W/m² | - |
| 1777996371 | 25.56° C | 36% | 1002.7 hPa | 0 mm | - | 96 W/m² | - |
| 1777994781 | 26.11° C | 35% | 1002.9 hPa | 0 mm | - | 215 W/m² | - |
| 1777993221 | 26.11° C | 35% | 1003 hPa | 0 mm | - | 317 W/m² | - |
| 1777991631 | 26.11° C | 35% | 1003.3 hPa | 0 mm | - | 511 W/m² | - |
| 1777988841 | 26.11° C | 35% | 1004 hPa | 0 mm | - | 560 W/m² | - |
| 1777988211 | 26.11° C | 38% | 1004 hPa | 0 mm | - | 612 W/m² | - |
| 1777986681 | 27.22° C | 32% | 1004.5 hPa | 0 mm | - | 660 W/m² | - |
| 1777984461 | 26.67° C | 35% | 1004.7 hPa | 0 mm | - | 726 W/m² | - |
| 1777982871 | 25.56° C | 42% | 1005.3 hPa | 0 mm | - | 810 W/m² | - |
| 1777981566 | 25.56° C | 44% | 1005.6 hPa | 0 mm | - | 799 W/m² | - |
| 1777979831 | 25.56° C | 43% | 1005.9 hPa | 0 mm | - | 832 W/m² | - |
| 1777978271 | 24.44° C | 50% | 1006.5 hPa | 0 mm | - | 378 W/m² | - |
| 1777976841 | 24.44° C | 46% | 1006.5 hPa | 0 mm | - | 866 W/m² | - |
| 1777975251 | 22.78° C | 50% | 1007 hPa | 0 mm | - | 801 W/m² | - |
| 1777972571 | 22.22° C | 53% | 1007.3 hPa | 0 mm | - | 627 W/m² | - |
| 1777971070 | 21.67° C | 55% | 1007.7 hPa | 0 mm | - | 667 W/m² | - |
| 1777969971 | 21.11° C | 55% | 1007.7 hPa | 0 mm | - | 555 W/m² | - |
| 1777968411 | 20° C | 56% | 1007.9 hPa | 0 mm | - | 581 W/m² | - |
| 1777966850 | 18.89° C | 59% | 1008 hPa | 0 mm | - | 465 W/m² | - |
| 1777966331 | 19.44° C | 61% | 1008.2 hPa | 0 mm | - | 443 W/m² | - |
| 1777964801 | 18.33° C | 62% | 1008.2 hPa | 0 mm | - | 408 W/m² | - |
| 1777963071 | 17.22° C | 66% | 1008.4 hPa | 0 mm | - | 322 W/m² | - |
| 1777962741 | 17.22° C | 67% | 1008.4 hPa | 0 mm | - | 304 W/m² | - |
| 1777962081 | 16.11° C | 68% | 1008.4 hPa | 0 mm | - | 262 W/m² | - |
* Rain latest hour (hover to see other rain measurements)
** Current wind speed in m/s (hover to see current wind gust speed)